sensor_id;sensor_type;location;lat;lon;timestamp;temperature;humidity
53802;DHT22;39709;53.334;6.534;2023-06-05T00:01:45;12.70;1.00
53802;DHT22;39709;53.334;6.534;2023-06-05T00:04:11;12.60;1.00
53802;DHT22;39709;53.334;6.534;2023-06-05T00:06:37;12.90;1.00
53802;DHT22;39709;53.334;6.534;2023-06-05T00:09:04;12.80;1.00
53802;DHT22;39709;53.334;6.534;2023-06-05T00:11:30;12.60;1.00
53802;DHT22;39709;53.334;6.534;2023-06-05T00:13:55;12.60;1.00
53802;DHT22;39709;53.334;6.534;2023-06-05T00:16:21;12.50;1.00
53802;DHT22;39709;53.334;6.534;2023-06-05T00:18:47;12.60;1.00
53802;DHT22;39709;53.334;6.534;2023-06-05T00:21:13;12.60;1.00
53802;DHT22;39709;53.334;6.534;2023-06-05T00:23:41;12.70;1.00
53802;DHT22;39709;53.334;6.534;2023-06-05T00:26:07;12.50;1.00
53802;DHT22;39709;53.334;6.534;2023-06-05T00:28:32;12.50;1.00
53802;DHT22;39709;53.334;6.534;2023-06-05T00:30:59;12.40;1.00
53802;DHT22;39709;53.334;6.534;2023-06-05T00:33:26;12.50;1.00
53802;DHT22;39709;53.334;6.534;2023-06-05T00:35:52;12.50;1.00
53802;DHT22;39709;53.334;6.534;2023-06-05T00:38:18;12.50;1.00
53802;DHT22;39709;53.334;6.534;2023-06-05T00:40:44;12.30;1.00
53802;DHT22;39709;53.334;6.534;2023-06-05T00:43:09;12.40;1.00
53802;DHT22;39709;53.334;6.534;2023-06-05T00:45:35;12.40;1.00
53802;DHT22;39709;53.334;6.534;2023-06-05T00:48:01;12.30;1.00
53802;DHT22;39709;53.334;6.534;2023-06-05T00:50:27;12.20;1.00
53802;DHT22;39709;53.334;6.534;2023-06-05T00:52:53;12.20;1.00
53802;DHT22;39709;53.334;6.534;2023-06-05T00:55:19;12.20;1.00
53802;DHT22;39709;53.334;6.534;2023-06-05T00:57:45;12.20;1.00
53802;DHT22;39709;53.334;6.534;2023-06-05T01:00:11;12.20;1.00
53802;DHT22;39709;53.334;6.534;2023-06-05T01:02:38;12.40;1.00
53802;DHT22;39709;53.334;6.534;2023-06-05T01:05:06;12.40;1.00
53802;DHT22;39709;53.334;6.534;2023-06-05T01:07:33;12.30;1.00
53802;DHT22;39709;53.334;6.534;2023-06-05T01:10:04;12.20;1.00
53802;DHT22;39709;53.334;6.534;2023-06-05T01:12:38;12.40;1.00
53802;DHT22;39709;53.334;6.534;2023-06-05T01:15:07;12.30;1.00
53802;DHT22;39709;53.334;6.534;2023-06-05T01:17:33;12.20;1.00
53802;DHT22;39709;53.334;6.534;2023-06-05T01:20:00;12.20;1.00
53802;DHT22;39709;53.334;6.534;2023-06-05T01:22:32;12.30;1.00
53802;DHT22;39709;53.334;6.534;2023-06-05T01:24:57;12.20;1.00
53802;DHT22;39709;53.334;6.534;2023-06-05T01:30:15;12.20;1.00
53802;DHT22;39709;53.334;6.534;2023-06-05T01:33:09;12.10;1.00
53802;DHT22;39709;53.334;6.534;2023-06-05T01:35:38;12.10;1.00
53802;DHT22;39709;53.334;6.534;2023-06-05T01:38:05;12.20;1.00
53802;DHT22;39709;53.334;6.534;2023-06-05T01:40:32;12.00;1.00
53802;DHT22;39709;53.334;6.534;2023-06-05T01:43:00;12.10;1.00
53802;DHT22;39709;53.334;6.534;2023-06-05T01:45:26;12.20;1.00
53802;DHT22;39709;53.334;6.534;2023-06-05T01:47:53;12.10;1.00
53802;DHT22;39709;53.334;6.534;2023-06-05T01:50:20;12.10;1.00
53802;DHT22;39709;53.334;6.534;2023-06-05T01:52:46;12.10;1.00
53802;DHT22;39709;53.334;6.534;2023-06-05T01:55:17;12.20;1.00
53802;DHT22;39709;53.334;6.534;2023-06-05T01:57:45;12.10;1.00
53802;DHT22;39709;53.334;6.534;2023-06-05T02:00:11;12.20;1.00
53802;DHT22;39709;53.334;6.534;2023-06-05T02:02:48;12.20;1.00
53802;DHT22;39709;53.334;6.534;2023-06-05T02:05:17;12.20;1.00
53802;DHT22;39709;53.334;6.534;2023-06-05T02:07:47;12.60;1.00
53802;DHT22;39709;53.334;6.534;2023-06-05T02:10:15;13.00;1.00
53802;DHT22;39709;53.334;6.534;2023-06-05T02:12:41;13.10;1.00
53802;DHT22;39709;53.334;6.534;2023-06-05T02:15:08;12.80;99.90
53802;DHT22;39709;53.334;6.534;2023-06-05T02:17:42;13.10;1.00
53802;DHT22;39709;53.334;6.534;2023-06-05T02:20:13;12.80;99.90
53802;DHT22;39709;53.334;6.534;2023-06-05T02:22:40;12.50;1.00
53802;DHT22;39709;53.334;6.534;2023-06-05T02:25:07;12.40;1.00
53802;DHT22;39709;53.334;6.534;2023-06-05T02:27:33;12.30;1.00
53802;DHT22;39709;53.334;6.534;2023-06-05T02:29:58;12.70;1.00
53802;DHT22;39709;53.334;6.534;2023-06-05T02:32:24;12.80;1.00
53802;DHT22;39709;53.334;6.534;2023-06-05T02:34:52;13.00;1.00
53802;DHT22;39709;53.334;6.534;2023-06-05T02:37:17;13.00;99.90
53802;DHT22;39709;53.334;6.534;2023-06-05T02:39:44;13.00;99.90
53802;DHT22;39709;53.334;6.534;2023-06-05T02:42:10;12.90;99.90
53802;DHT22;39709;53.334;6.534;2023-06-05T02:44:38;12.50;1.00
53802;DHT22;39709;53.334;6.534;2023-06-05T02:47:03;12.50;1.00
53802;DHT22;39709;53.334;6.534;2023-06-05T02:49:29;12.40;1.00
53802;DHT22;39709;53.334;6.534;2023-06-05T02:51:55;12.50;1.00
53802;DHT22;39709;53.334;6.534;2023-06-05T02:54:21;12.50;1.00
53802;DHT22;39709;53.334;6.534;2023-06-05T02:56:47;12.40;1.00
53802;DHT22;39709;53.334;6.534;2023-06-05T02:59:13;12.40;1.00
53802;DHT22;39709;53.334;6.534;2023-06-05T03:01:39;12.30;1.00
53802;DHT22;39709;53.334;6.534;2023-06-05T03:04:12;12.30;1.00
53802;DHT22;39709;53.334;6.534;2023-06-05T03:06:39;12.30;1.00
53802;DHT22;39709;53.334;6.534;2023-06-05T03:09:09;12.30;1.00
53802;DHT22;39709;53.334;6.534;2023-06-05T03:11:34;12.40;1.00
53802;DHT22;39709;53.334;6.534;2023-06-05T03:14:00;12.50;1.00
53802;DHT22;39709;53.334;6.534;2023-06-05T03:16:26;12.40;1.00
53802;DHT22;39709;53.334;6.534;2023-06-05T03:18:58;12.30;1.00
53802;DHT22;39709;53.334;6.534;2023-06-05T03:21:23;12.20;1.00
53802;DHT22;39709;53.334;6.534;2023-06-05T03:23:49;12.20;1.00
53802;DHT22;39709;53.334;6.534;2023-06-05T03:26:15;12.10;1.00
53802;DHT22;39709;53.334;6.534;2023-06-05T03:28:40;12.30;1.00
53802;DHT22;39709;53.334;6.534;2023-06-05T03:31:06;12.30;1.00
53802;DHT22;39709;53.334;6.534;2023-06-05T03:33:32;12.70;1.00
53802;DHT22;39709;53.334;6.534;2023-06-05T03:35:58;12.60;1.00
53802;DHT22;39709;53.334;6.534;2023-06-05T03:38:25;12.50;1.00
53802;DHT22;39709;53.334;6.534;2023-06-05T03:40:51;12.60;1.00
53802;DHT22;39709;53.334;6.534;2023-06-05T03:43:16;12.50;1.00
53802;DHT22;39709;53.334;6.534;2023-06-05T03:45:42;12.30;1.00
53802;DHT22;39709;53.334;6.534;2023-06-05T03:48:08;12.10;1.00
53802;DHT22;39709;53.334;6.534;2023-06-05T03:50:36;12.00;1.00
53802;DHT22;39709;53.334;6.534;2023-06-05T03:53:06;12.00;1.00
53802;DHT22;39709;53.334;6.534;2023-06-05T03:55:34;11.90;1.00
53802;DHT22;39709;53.334;6.534;2023-06-05T03:58:14;11.90;1.00
53802;DHT22;39709;53.334;6.534;2023-06-05T04:00:41;11.90;1.00
53802;DHT22;39709;53.334;6.534;2023-06-05T04:03:08;11.90;1.00
53802;DHT22;39709;53.334;6.534;2023-06-05T04:05:35;11.90;1.00
53802;DHT22;39709;53.334;6.534;2023-06-05T04:08:01;11.70;1.00
53802;DHT22;39709;53.334;6.534;2023-06-05T04:10:28;11.80;1.00
53802;DHT22;39709;53.334;6.534;2023-06-05T04:12:54;11.70;1.00
53802;DHT22;39709;53.334;6.534;2023-06-05T04:15:21;11.70;1.00
53802;DHT22;39709;53.334;6.534;2023-06-05T04:17:46;11.80;1.00
53802;DHT22;39709;53.334;6.534;2023-06-05T04:20:12;11.70;1.00
53802;DHT22;39709;53.334;6.534;2023-06-05T04:22:41;11.80;1.00
53802;DHT22;39709;53.334;6.534;2023-06-05T04:25:07;11.90;1.00
53802;DHT22;39709;53.334;6.534;2023-06-05T04:27:37;11.90;1.00
53802;DHT22;39709;53.334;6.534;2023-06-05T04:30:04;11.90;1.00
53802;DHT22;39709;53.334;6.534;2023-06-05T04:32:30;11.80;1.00
53802;DHT22;39709;53.334;6.534;2023-06-05T04:35:00;11.90;1.00
53802;DHT22;39709;53.334;6.534;2023-06-05T04:37:26;11.90;1.00
53802;DHT22;39709;53.334;6.534;2023-06-05T04:39:52;11.90;1.00
53802;DHT22;39709;53.334;6.534;2023-06-05T04:42:18;11.90;1.00
53802;DHT22;39709;53.334;6.534;2023-06-05T04:44:44;12.00;1.00
53802;DHT22;39709;53.334;6.534;2023-06-05T04:47:10;12.00;1.00
53802;DHT22;39709;53.334;6.534;2023-06-05T04:49:35;12.10;1.00
53802;DHT22;39709;53.334;6.534;2023-06-05T04:52:02;12.00;1.00
53802;DHT22;39709;53.334;6.534;2023-06-05T04:54:27;12.20;1.00
53802;DHT22;39709;53.334;6.534;2023-06-05T04:56:53;12.20;1.00
53802;DHT22;39709;53.334;6.534;2023-06-05T04:59:19;12.20;1.00
53802;DHT22;39709;53.334;6.534;2023-06-05T05:01:45;12.20;1.00
53802;DHT22;39709;53.334;6.534;2023-06-05T05:04:10;12.20;1.00
53802;DHT22;39709;53.334;6.534;2023-06-05T05:06:37;12.20;1.00
53802;DHT22;39709;53.334;6.534;2023-06-05T05:09:04;12.20;1.00
53802;DHT22;39709;53.334;6.534;2023-06-05T05:11:30;12.40;1.00
53802;DHT22;39709;53.334;6.534;2023-06-05T05:13:55;12.40;1.00
53802;DHT22;39709;53.334;6.534;2023-06-05T05:16:21;12.50;1.00
53802;DHT22;39709;53.334;6.534;2023-06-05T05:18:48;12.70;1.00
53802;DHT22;39709;53.334;6.534;2023-06-05T05:21:13;12.60;1.00
53802;DHT22;39709;53.334;6.534;2023-06-05T05:23:39;12.60;1.00
53802;DHT22;39709;53.334;6.534;2023-06-05T05:26:06;12.80;1.00
53802;DHT22;39709;53.334;6.534;2023-06-05T05:28:32;12.90;99.90
53802;DHT22;39709;53.334;6.534;2023-06-05T05:30:58;13.10;99.90
53802;DHT22;39709;53.334;6.534;2023-06-05T05:33:24;12.90;99.90
53802;DHT22;39709;53.334;6.534;2023-06-05T05:35:50;12.90;1.00
53802;DHT22;39709;53.334;6.534;2023-06-05T05:38:16;13.30;99.90
53802;DHT22;39709;53.334;6.534;2023-06-05T05:40:41;13.10;99.90
53802;DHT22;39709;53.334;6.534;2023-06-05T05:43:07;13.00;99.90
53802;DHT22;39709;53.334;6.534;2023-06-05T05:45:33;12.90;1.00
53802;DHT22;39709;53.334;6.534;2023-06-05T05:47:59;13.00;1.00
53802;DHT22;39709;53.334;6.534;2023-06-05T05:50:25;13.10;99.90
53802;DHT22;39709;53.334;6.534;2023-06-05T05:52:50;12.90;99.90
53802;DHT22;39709;53.334;6.534;2023-06-05T05:55:18;12.90;1.00
53802;DHT22;39709;53.334;6.534;2023-06-05T05:57:44;12.70;99.90
53802;DHT22;39709;53.334;6.534;2023-06-05T06:00:10;12.70;99.90
53802;DHT22;39709;53.334;6.534;2023-06-05T06:02:38;12.80;99.90
53802;DHT22;39709;53.334;6.534;2023-06-05T06:05:05;12.80;99.90
53802;DHT22;39709;53.334;6.534;2023-06-05T06:07:31;12.80;99.90
53802;DHT22;39709;53.334;6.534;2023-06-05T06:09:57;13.00;99.90
53802;DHT22;39709;53.334;6.534;2023-06-05T06:12:24;13.50;99.90
53802;DHT22;39709;53.334;6.534;2023-06-05T06:14:50;13.70;99.90
53802;DHT22;39709;53.334;6.534;2023-06-05T06:17:16;13.50;99.90
53802;DHT22;39709;53.334;6.534;2023-06-05T06:19:43;13.50;99.90
53802;DHT22;39709;53.334;6.534;2023-06-05T06:22:08;13.60;99.90
53802;DHT22;39709;53.334;6.534;2023-06-05T06:24:42;13.50;99.90
53802;DHT22;39709;53.334;6.534;2023-06-05T06:27:08;13.40;99.90
53802;DHT22;39709;53.334;6.534;2023-06-05T06:29:37;13.60;99.90
53802;DHT22;39709;53.334;6.534;2023-06-05T06:32:03;13.80;99.90
53802;DHT22;39709;53.334;6.534;2023-06-05T06:34:28;13.90;99.90
53802;DHT22;39709;53.334;6.534;2023-06-05T06:36:55;14.10;99.90
53802;DHT22;39709;53.334;6.534;2023-06-05T06:39:21;13.90;99.90
53802;DHT22;39709;53.334;6.534;2023-06-05T06:41:49;14.00;99.90
53802;DHT22;39709;53.334;6.534;2023-06-05T06:44:17;13.80;99.90
53802;DHT22;39709;53.334;6.534;2023-06-05T06:46:42;14.10;99.90
53802;DHT22;39709;53.334;6.534;2023-06-05T06:49:08;14.30;99.90
53802;DHT22;39709;53.334;6.534;2023-06-05T06:51:34;14.50;99.90
53802;DHT22;39709;53.334;6.534;2023-06-05T06:53:59;14.70;99.90
53802;DHT22;39709;53.334;6.534;2023-06-05T06:56:25;14.60;99.90
53802;DHT22;39709;53.334;6.534;2023-06-05T06:58:53;14.60;99.90
53802;DHT22;39709;53.334;6.534;2023-06-05T07:01:18;15.00;99.90
53802;DHT22;39709;53.334;6.534;2023-06-05T07:03:45;14.70;99.90
53802;DHT22;39709;53.334;6.534;2023-06-05T07:06:12;14.50;99.90
53802;DHT22;39709;53.334;6.534;2023-06-05T07:08:38;14.10;99.90
53802;DHT22;39709;53.334;6.534;2023-06-05T07:11:04;13.80;99.90
53802;DHT22;39709;53.334;6.534;2023-06-05T07:13:30;14.00;99.90
53802;DHT22;39709;53.334;6.534;2023-06-05T07:15:55;13.80;99.90
53802;DHT22;39709;53.334;6.534;2023-06-05T07:18:21;14.20;99.90
53802;DHT22;39709;53.334;6.534;2023-06-05T07:20:47;14.20;99.90
53802;DHT22;39709;53.334;6.534;2023-06-05T07:23:14;14.30;99.90
53802;DHT22;39709;53.334;6.534;2023-06-05T07:25:40;14.40;99.90
53802;DHT22;39709;53.334;6.534;2023-06-05T07:28:09;14.60;99.90
53802;DHT22;39709;53.334;6.534;2023-06-05T07:30:37;14.60;99.90
53802;DHT22;39709;53.334;6.534;2023-06-05T07:33:02;14.70;99.90
53802;DHT22;39709;53.334;6.534;2023-06-05T07:35:29;14.30;99.90
53802;DHT22;39709;53.334;6.534;2023-06-05T07:37:55;14.20;99.90
53802;DHT22;39709;53.334;6.534;2023-06-05T07:40:20;14.30;99.90
53802;DHT22;39709;53.334;6.534;2023-06-05T07:42:46;14.50;99.90
53802;DHT22;39709;53.334;6.534;2023-06-05T07:45:12;14.50;99.90
53802;DHT22;39709;53.334;6.534;2023-06-05T07:47:38;14.80;99.90
53802;DHT22;39709;53.334;6.534;2023-06-05T07:50:04;15.00;99.90
53802;DHT22;39709;53.334;6.534;2023-06-05T07:52:35;15.60;99.90
53802;DHT22;39709;53.334;6.534;2023-06-05T07:55:01;15.20;99.90
53802;DHT22;39709;53.334;6.534;2023-06-05T07:57:27;15.00;99.90
53802;DHT22;39709;53.334;6.534;2023-06-05T07:59:54;15.20;99.90
53802;DHT22;39709;53.334;6.534;2023-06-05T08:02:20;15.40;99.90
53802;DHT22;39709;53.334;6.534;2023-06-05T08:04:46;15.80;99.90
53802;DHT22;39709;53.334;6.534;2023-06-05T08:07:12;15.40;99.90
53802;DHT22;39709;53.334;6.534;2023-06-05T08:09:38;14.70;99.90
53802;DHT22;39709;53.334;6.534;2023-06-05T08:12:05;14.30;99.90
53802;DHT22;39709;53.334;6.534;2023-06-05T08:14:31;14.80;99.90
53802;DHT22;39709;53.334;6.534;2023-06-05T08:16:57;15.40;99.90
53802;DHT22;39709;53.334;6.534;2023-06-05T08:19:23;14.80;99.90
53802;DHT22;39709;53.334;6.534;2023-06-05T08:21:53;15.10;99.90
53802;DHT22;39709;53.334;6.534;2023-06-05T08:24:25;15.00;99.90
53802;DHT22;39709;53.334;6.534;2023-06-05T08:26:52;14.60;99.90
53802;DHT22;39709;53.334;6.534;2023-06-05T08:29:18;14.40;99.90
53802;DHT22;39709;53.334;6.534;2023-06-05T08:31:44;14.50;99.90
53802;DHT22;39709;53.334;6.534;2023-06-05T08:34:09;14.50;99.90
53802;DHT22;39709;53.334;6.534;2023-06-05T08:36:36;14.60;99.90
53802;DHT22;39709;53.334;6.534;2023-06-05T08:39:02;15.00;99.90
53802;DHT22;39709;53.334;6.534;2023-06-05T08:41:29;15.20;99.90
53802;DHT22;39709;53.334;6.534;2023-06-05T08:43:58;15.50;99.90
53802;DHT22;39709;53.334;6.534;2023-06-05T08:46:28;15.50;99.90
53802;DHT22;39709;53.334;6.534;2023-06-05T08:48:53;15.50;99.90
53802;DHT22;39709;53.334;6.534;2023-06-05T08:51:21;15.60;99.90
53802;DHT22;39709;53.334;6.534;2023-06-05T08:53:52;15.60;99.90
53802;DHT22;39709;53.334;6.534;2023-06-05T08:56:20;15.60;99.90
53802;DHT22;39709;53.334;6.534;2023-06-05T08:58:46;16.10;99.90
53802;DHT22;39709;53.334;6.534;2023-06-05T09:01:13;16.20;99.90
53802;DHT22;39709;53.334;6.534;2023-06-05T09:03:39;16.50;99.90
53802;DHT22;39709;53.334;6.534;2023-06-05T09:06:04;16.50;99.90
53802;DHT22;39709;53.334;6.534;2023-06-05T09:08:34;15.80;99.90
53802;DHT22;39709;53.334;6.534;2023-06-05T09:11:28;16.10;99.90
53802;DHT22;39709;53.334;6.534;2023-06-05T09:13:56;16.20;99.90
53802;DHT22;39709;53.334;6.534;2023-06-05T09:16:31;16.20;99.90
53802;DHT22;39709;53.334;6.534;2023-06-05T09:18:58;15.90;99.90
53802;DHT22;39709;53.334;6.534;2023-06-05T09:21:26;15.50;99.90
53802;DHT22;39709;53.334;6.534;2023-06-05T09:24:19;15.60;99.90
53802;DHT22;39709;53.334;6.534;2023-06-05T09:29:29;15.60;99.90
53802;DHT22;39709;53.334;6.534;2023-06-05T09:32:09;16.10;99.90
53802;DHT22;39709;53.334;6.534;2023-06-05T09:34:41;16.30;99.90
53802;DHT22;39709;53.334;6.534;2023-06-05T09:37:08;16.40;99.90
53802;DHT22;39709;53.334;6.534;2023-06-05T09:39:39;16.60;99.90
53802;DHT22;39709;53.334;6.534;2023-06-05T09:42:06;16.50;99.90
53802;DHT22;39709;53.334;6.534;2023-06-05T09:44:33;16.80;99.90
53802;DHT22;39709;53.334;6.534;2023-06-05T09:47:07;16.40;99.90
53802;DHT22;39709;53.334;6.534;2023-06-05T09:52:06;16.70;99.90
53802;DHT22;39709;53.334;6.534;2023-06-05T09:54:33;16.40;99.90
53802;DHT22;39709;53.334;6.534;2023-06-05T09:57:03;16.50;99.90
53802;DHT22;39709;53.334;6.534;2023-06-05T09:59:31;17.20;99.90
53802;DHT22;39709;53.334;6.534;2023-06-05T10:02:03;17.50;99.90
53802;DHT22;39709;53.334;6.534;2023-06-05T10:04:36;17.30;99.90
53802;DHT22;39709;53.334;6.534;2023-06-05T10:07:03;17.40;99.90
53802;DHT22;39709;53.334;6.534;2023-06-05T10:09:30;18.20;99.90
53802;DHT22;39709;53.334;6.534;2023-06-05T10:11:57;17.70;99.90
53802;DHT22;39709;53.334;6.534;2023-06-05T10:14:24;17.70;99.90
53802;DHT22;39709;53.334;6.534;2023-06-05T10:16:51;17.30;99.90
53802;DHT22;39709;53.334;6.534;2023-06-05T10:19:19;16.80;99.90
53802;DHT22;39709;53.334;6.534;2023-06-05T10:21:48;17.30;99.90
53802;DHT22;39709;53.334;6.534;2023-06-05T10:24:34;17.10;99.90
53802;DHT22;39709;53.334;6.534;2023-06-05T10:29:59;16.70;99.90
53802;DHT22;39709;53.334;6.534;2023-06-05T10:38:19;16.60;99.90
53802;DHT22;39709;53.334;6.534;2023-06-05T10:43:29;16.50;99.90
53802;DHT22;39709;53.334;6.534;2023-06-05T10:45:57;16.60;99.90
53802;DHT22;39709;53.334;6.534;2023-06-05T10:59:24;16.90;99.90
53802;DHT22;39709;53.334;6.534;2023-06-05T11:07:26;16.30;99.90
53802;DHT22;39709;53.334;6.534;2023-06-05T11:10:15;16.50;99.90
53802;DHT22;39709;53.334;6.534;2023-06-05T11:17:46;17.00;99.90
53802;DHT22;39709;53.334;6.534;2023-06-05T11:27:50;16.50;99.90
53802;DHT22;39709;53.334;6.534;2023-06-05T11:30:18;16.10;99.90
53802;DHT22;39709;53.334;6.534;2023-06-05T11:32:44;16.80;99.90
53802;DHT22;39709;53.334;6.534;2023-06-05T11:35:11;16.20;99.90
53802;DHT22;39709;53.334;6.534;2023-06-05T11:37:38;15.70;99.90
53802;DHT22;39709;53.334;6.534;2023-06-05T11:40:06;16.10;99.90
53802;DHT22;39709;53.334;6.534;2023-06-05T11:42:39;15.90;99.90
53802;DHT22;39709;53.334;6.534;2023-06-05T11:45:14;16.30;99.90
53802;DHT22;39709;53.334;6.534;2023-06-05T11:47:40;16.40;99.90
53802;DHT22;39709;53.334;6.534;2023-06-05T11:50:08;16.30;99.90
53802;DHT22;39709;53.334;6.534;2023-06-05T11:52:35;16.80;99.90
53802;DHT22;39709;53.334;6.534;2023-06-05T11:55:14;16.30;99.90
53802;DHT22;39709;53.334;6.534;2023-06-05T11:57:45;16.30;99.90
53802;DHT22;39709;53.334;6.534;2023-06-05T12:00:12;16.60;99.90
53802;DHT22;39709;53.334;6.534;2023-06-05T12:02:40;16.80;99.90
53802;DHT22;39709;53.334;6.534;2023-06-05T12:05:07;16.80;99.90
53802;DHT22;39709;53.334;6.534;2023-06-05T12:07:33;16.60;99.90
53802;DHT22;39709;53.334;6.534;2023-06-05T12:10:09;16.70;99.90
53802;DHT22;39709;53.334;6.534;2023-06-05T12:12:50;16.60;99.90
53802;DHT22;39709;53.334;6.534;2023-06-05T12:15:16;16.60;99.90
53802;DHT22;39709;53.334;6.534;2023-06-05T12:17:50;16.60;99.90
53802;DHT22;39709;53.334;6.534;2023-06-05T12:20:16;16.70;99.90
53802;DHT22;39709;53.334;6.534;2023-06-05T12:22:42;16.40;99.90
53802;DHT22;39709;53.334;6.534;2023-06-05T12:25:18;16.80;99.90
53802;DHT22;39709;53.334;6.534;2023-06-05T12:27:45;16.30;99.90
53802;DHT22;39709;53.334;6.534;2023-06-05T12:30:12;16.30;99.90
53802;DHT22;39709;53.334;6.534;2023-06-05T12:32:38;16.60;99.90
53802;DHT22;39709;53.334;6.534;2023-06-05T12:35:29;16.10;99.90
53802;DHT22;39709;53.334;6.534;2023-06-05T12:37:59;16.80;99.90
53802;DHT22;39709;53.334;6.534;2023-06-05T12:40:25;16.50;99.90
53802;DHT22;39709;53.334;6.534;2023-06-05T12:42:51;16.30;99.90
53802;DHT22;39709;53.334;6.534;2023-06-05T12:45:17;16.30;99.90
53802;DHT22;39709;53.334;6.534;2023-06-05T12:47:43;16.30;99.90
53802;DHT22;39709;53.334;6.534;2023-06-05T12:50:10;16.90;99.90
53802;DHT22;39709;53.334;6.534;2023-06-05T12:52:39;16.70;99.90
53802;DHT22;39709;53.334;6.534;2023-06-05T12:55:06;16.30;99.90
53802;DHT22;39709;53.334;6.534;2023-06-05T12:57:32;16.30;99.90
53802;DHT22;39709;53.334;6.534;2023-06-05T13:00:02;16.50;99.90
53802;DHT22;39709;53.334;6.534;2023-06-05T13:02:36;16.00;99.90
53802;DHT22;39709;53.334;6.534;2023-06-05T13:05:02;16.60;99.90
53802;DHT22;39709;53.334;6.534;2023-06-05T13:07:30;16.20;99.90
53802;DHT22;39709;53.334;6.534;2023-06-05T13:09:57;17.30;99.90
53802;DHT22;39709;53.334;6.534;2023-06-05T13:12:22;16.60;99.90
53802;DHT22;39709;53.334;6.534;2023-06-05T13:14:48;16.50;99.90
53802;DHT22;39709;53.334;6.534;2023-06-05T13:17:14;16.90;99.90
53802;DHT22;39709;53.334;6.534;2023-06-05T13:19:40;16.70;99.90
53802;DHT22;39709;53.334;6.534;2023-06-05T13:22:06;17.00;99.90
53802;DHT22;39709;53.334;6.534;2023-06-05T13:24:32;17.10;99.90
53802;DHT22;39709;53.334;6.534;2023-06-05T13:26:57;16.60;99.90
53802;DHT22;39709;53.334;6.534;2023-06-05T13:29:23;16.50;99.90
53802;DHT22;39709;53.334;6.534;2023-06-05T13:31:48;16.80;99.90
53802;DHT22;39709;53.334;6.534;2023-06-05T13:34:14;17.00;99.90
53802;DHT22;39709;53.334;6.534;2023-06-05T13:36:40;17.50;99.90
53802;DHT22;39709;53.334;6.534;2023-06-05T13:39:05;16.80;99.90
53802;DHT22;39709;53.334;6.534;2023-06-05T13:41:31;16.60;99.90
53802;DHT22;39709;53.334;6.534;2023-06-05T13:43:57;16.70;99.90
53802;DHT22;39709;53.334;6.534;2023-06-05T13:46:24;16.60;99.90
53802;DHT22;39709;53.334;6.534;2023-06-05T13:48:50;16.80;99.90
53802;DHT22;39709;53.334;6.534;2023-06-05T13:51:16;16.50;99.90
53802;DHT22;39709;53.334;6.534;2023-06-05T13:53:42;17.20;99.90
53802;DHT22;39709;53.334;6.534;2023-06-05T13:56:08;17.20;99.90
53802;DHT22;39709;53.334;6.534;2023-06-05T13:58:33;16.30;99.90
53802;DHT22;39709;53.334;6.534;2023-06-05T14:01:00;16.20;99.90
53802;DHT22;39709;53.334;6.534;2023-06-05T14:03:26;17.10;99.90
53802;DHT22;39709;53.334;6.534;2023-06-05T14:05:52;16.50;99.90
53802;DHT22;39709;53.334;6.534;2023-06-05T14:08:18;16.30;99.90
53802;DHT22;39709;53.334;6.534;2023-06-05T14:10:44;16.00;99.90
53802;DHT22;39709;53.334;6.534;2023-06-05T14:13:11;16.20;99.90
53802;DHT22;39709;53.334;6.534;2023-06-05T14:15:36;16.60;99.90
53802;DHT22;39709;53.334;6.534;2023-06-05T14:18:04;16.60;99.90
53802;DHT22;39709;53.334;6.534;2023-06-05T14:20:30;17.40;99.90
53802;DHT22;39709;53.334;6.534;2023-06-05T14:22:59;16.60;99.90
53802;DHT22;39709;53.334;6.534;2023-06-05T14:25:25;16.80;99.90
53802;DHT22;39709;53.334;6.534;2023-06-05T14:27:56;16.70;99.90
53802;DHT22;39709;53.334;6.534;2023-06-05T14:30:22;17.10;99.90
53802;DHT22;39709;53.334;6.534;2023-06-05T14:32:48;17.00;99.90
53802;DHT22;39709;53.334;6.534;2023-06-05T14:35:14;17.00;99.90
53802;DHT22;39709;53.334;6.534;2023-06-05T14:37:42;16.60;99.90
53802;DHT22;39709;53.334;6.534;2023-06-05T14:40:08;16.50;99.90
53802;DHT22;39709;53.334;6.534;2023-06-05T14:42:34;16.50;99.90
53802;DHT22;39709;53.334;6.534;2023-06-05T14:45:01;16.80;99.90
53802;DHT22;39709;53.334;6.534;2023-06-05T14:47:27;17.10;99.90
53802;DHT22;39709;53.334;6.534;2023-06-05T14:49:53;17.10;99.90
53802;DHT22;39709;53.334;6.534;2023-06-05T14:52:19;17.00;99.90
53802;DHT22;39709;53.334;6.534;2023-06-05T14:54:45;17.40;99.90
53802;DHT22;39709;53.334;6.534;2023-06-05T14:57:10;17.30;99.90
53802;DHT22;39709;53.334;6.534;2023-06-05T14:59:36;16.80;99.90
53802;DHT22;39709;53.334;6.534;2023-06-05T15:02:02;16.80;99.90
53802;DHT22;39709;53.334;6.534;2023-06-05T15:04:28;17.00;99.90
53802;DHT22;39709;53.334;6.534;2023-06-05T15:06:55;17.10;99.90
53802;DHT22;39709;53.334;6.534;2023-06-05T15:09:21;16.80;99.90
53802;DHT22;39709;53.334;6.534;2023-06-05T15:11:47;16.70;99.90
53802;DHT22;39709;53.334;6.534;2023-06-05T15:14:13;16.70;99.90
53802;DHT22;39709;53.334;6.534;2023-06-05T15:16:39;16.60;99.90
53802;DHT22;39709;53.334;6.534;2023-06-05T15:19:04;17.20;99.90
53802;DHT22;39709;53.334;6.534;2023-06-05T15:21:30;17.20;99.90
53802;DHT22;39709;53.334;6.534;2023-06-05T15:23:56;16.70;99.90
53802;DHT22;39709;53.334;6.534;2023-06-05T15:26:21;17.40;99.90
53802;DHT22;39709;53.334;6.534;2023-06-05T15:28:47;17.20;99.90
53802;DHT22;39709;53.334;6.534;2023-06-05T15:31:13;17.40;99.90
53802;DHT22;39709;53.334;6.534;2023-06-05T15:33:39;16.90;99.90
53802;DHT22;39709;53.334;6.534;2023-06-05T15:36:05;17.30;99.90
53802;DHT22;39709;53.334;6.534;2023-06-05T15:38:31;17.00;99.90
53802;DHT22;39709;53.334;6.534;2023-06-05T15:40:57;17.20;99.90
53802;DHT22;39709;53.334;6.534;2023-06-05T15:43:23;17.30;99.90
53802;DHT22;39709;53.334;6.534;2023-06-05T15:45:48;16.70;99.90
53802;DHT22;39709;53.334;6.534;2023-06-05T15:48:15;17.10;99.90
53802;DHT22;39709;53.334;6.534;2023-06-05T15:50:41;16.90;99.90
53802;DHT22;39709;53.334;6.534;2023-06-05T15:53:07;17.20;99.90
53802;DHT22;39709;53.334;6.534;2023-06-05T15:55:33;17.40;99.90
53802;DHT22;39709;53.334;6.534;2023-06-05T15:58:05;17.30;99.90
53802;DHT22;39709;53.334;6.534;2023-06-05T16:00:31;17.30;99.90
53802;DHT22;39709;53.334;6.534;2023-06-05T16:02:56;17.70;99.90
53802;DHT22;39709;53.334;6.534;2023-06-05T16:05:22;17.60;99.90
53802;DHT22;39709;53.334;6.534;2023-06-05T16:07:48;17.40;99.90
53802;DHT22;39709;53.334;6.534;2023-06-05T16:10:14;17.20;99.90
53802;DHT22;39709;53.334;6.534;2023-06-05T16:12:40;17.10;99.90
53802;DHT22;39709;53.334;6.534;2023-06-05T16:15:07;17.90;99.90
53802;DHT22;39709;53.334;6.534;2023-06-05T16:17:32;17.20;99.90
53802;DHT22;39709;53.334;6.534;2023-06-05T16:19:58;17.50;99.90
53802;DHT22;39709;53.334;6.534;2023-06-05T16:22:24;18.30;99.90
53802;DHT22;39709;53.334;6.534;2023-06-05T16:24:50;17.80;99.90